Time;durP1;ratioP1;P1;durP2;ratioP2;P2;SDS_P1;SDS_P2;PMS_P1;PMS_P2;Temp;Humidity;BMP_temperature;BMP_pressure;BME280_temperature;BME280_humidity;BME280_pressure;Samples;Min_cycle;Max_cycle;Signal;HPM_P1;HPM_P2
2021/04/29 00:03:38;;;;;;;34.07;19.97;;;;;;;9.05;43.72;98208.95;262669;1105;114960;-82
2021/04/29 00:08:42;;;;;;;33.90;19.20;;;;;;;8.91;44.32;98209.89;262818;1100;114803;-82
2021/04/29 00:13:45;;;;;;;36.68;19.93;;;;;;;8.82;44.44;98207.02;262770;1104;115009;-83
2021/04/29 00:18:50;;;;;;;36.38;19.48;;;;;;;8.68;44.36;98207.95;263324;1099;115566;-82
2021/04/29 00:23:53;;;;;;;35.55;17.95;;;;;;;8.57;45.12;98203.38;262998;1104;115153;-82
2021/04/29 00:28:56;;;;;;;35.30;17.93;;;;;;;8.50;44.83;98205.59;262879;1102;114914;-82
2021/04/29 00:34:00;;;;;;;34.40;18.23;;;;;;;8.44;44.75;98216.61;262559;1105;114662;-83
2021/04/29 00:39:04;;;;;;;40.35;19.40;;;;;;;8.38;45.78;98219.66;263176;1099;115685;-82
2021/04/29 00:44:07;;;;;;;34.15;19.15;;;;;;;8.33;45.67;98223.55;263239;1104;115106;-82
2021/04/29 00:49:10;;;;;;;32.95;18.18;;;;;;;8.25;45.46;98224.03;262847;1100;114787;-82
2021/04/29 00:54:12;;;;;;;32.78;18.65;;;;;;;8.20;45.21;98224.34;262819;1104;115342;-82
2021/04/29 00:59:15;;;;;;;32.20;18.23;;;;;;;8.14;45.85;98221.25;263342;1097;115205;-82
2021/04/29 01:04:37;;;;;;;30.25;18.25;;;;;;;8.07;46.47;98226.09;262770;1105;114634;-82
2021/04/29 01:10:07;;;;;;;30.33;18.13;;;;;;;8.04;46.29;98226.28;262848;1100;115368;-83
2021/04/29 01:15:11;;;;;;;34.68;18.80;;;;;;;8.00;45.97;98225.64;263203;1105;114693;-82
2021/04/29 01:20:47;;;;;;;34.55;18.75;;;;;;;7.93;46.13;98224.34;262615;1101;114822;-82
2021/04/29 01:25:57;;;;;;;34.78;19.03;;;;;;;7.86;46.16;98211.59;263016;1104;114696;-82
2021/04/29 01:31:01;;;;;;;34.93;19.13;;;;;;;7.83;46.80;98207.33;263235;1100;115415;-82
2021/04/29 01:36:05;;;;;;;38.98;19.13;;;;;;;7.81;47.29;98204.80;263148;1104;114981;-82
2021/04/29 01:41:08;;;;;;;36.78;20.18;;;;;;;7.76;46.73;98204.23;261872;1100;115127;-77
2021/04/29 01:46:11;;;;;;;39.55;20.78;;;;;;;7.70;47.73;98207.26;263011;1104;115525;-78
2021/04/29 01:51:14;;;;;;;34.95;20.38;;;;;;;7.63;47.70;98200.66;262677;1101;114950;-82
2021/04/29 01:56:19;;;;;;;38.98;19.70;;;;;;;7.52;47.05;98203.98;263102;1104;115185;-79
2021/04/29 02:01:22;;;;;;;36.08;19.20;;;;;;;7.37;47.45;98212.91;263049;1100;115488;-78
2021/04/29 02:06:26;;;;;;;36.50;19.78;;;;;;;7.25;47.42;98211.01;262885;1104;115743;-79
2021/04/29 02:11:36;;;;;;;33.70;19.58;;;;;;;7.18;48.15;98202.59;262350;1101;114724;-78
2021/04/29 02:16:44;;;;;;;32.90;18.98;;;;;;;7.12;47.78;98200.32;263139;1104;114659;-77
2021/04/29 02:21:48;;;;;;;36.38;17.98;;;;;;;7.10;48.54;98202.23;263127;1100;115335;-79
2021/04/29 02:26:51;;;;;;;36.65;18.90;;;;;;;7.05;48.34;98193.71;263011;1104;114858;-79
2021/04/29 02:31:55;;;;;;;37.80;18.73;;;;;;;7.00;48.88;98196.65;262670;1100;114967;-79
2021/04/29 02:37:00;;;;;;;36.23;19.20;;;;;;;6.97;48.92;98196.83;262442;1105;115496;-78
2021/04/29 02:42:03;;;;;;;35.50;18.67;;;;;;;6.95;48.42;98181.99;262788;1100;115432;-79
2021/04/29 02:47:08;;;;;;;35.90;18.73;;;;;;;6.90;49.04;98187.58;263004;1104;114687;-79
2021/04/29 02:52:12;;;;;;;34.58;18.85;;;;;;;6.90;48.77;98184.93;262908;1100;116979;-78
2021/04/29 02:57:24;;;;;;;38.50;19.33;;;;;;;6.81;49.25;98185.48;263069;1104;115358;-78
2021/04/29 03:02:27;;;;;;;33.40;18.25;;;;;;;6.72;49.14;98194.80;262889;1102;114975;-78
2021/04/29 03:07:30;;;;;;;35.30;18.50;;;;;;;6.67;49.71;98199.53;263031;1104;114833;-77
2021/04/29 03:12:33;;;;;;;37.13;18.60;;;;;;;6.70;49.78;98201.99;262888;1102;115470;-77
2021/04/29 03:17:37;;;;;;;32.07;18.30;;;;;;;6.70;49.39;98212.57;263086;1103;115588;-77
2021/04/29 03:22:54;;;;;;;28.70;17.35;;;;;;;6.70;49.45;98220.50;262788;1100;114653;-78
2021/04/29 03:27:57;;;;;;;33.93;19.00;;;;;;;6.72;49.86;98210.66;263210;1104;115104;-78
2021/04/29 03:33:00;;;;;;;35.20;18.13;;;;;;;6.79;49.99;98219.96;262775;1099;115606;-77
2021/04/29 03:38:04;;;;;;;34.48;18.48;;;;;;;6.87;49.81;98227.42;262966;1104;115023;-77
2021/04/29 03:43:07;;;;;;;38.20;18.43;;;;;;;6.91;50.50;98213.07;262590;1102;114749;-76
2021/04/29 03:48:10;;;;;;;32.48;17.05;;;;;;;6.98;50.94;98210.91;263035;1104;115898;-76
2021/04/29 03:53:13;;;;;;;32.23;17.53;;;;;;;7.06;50.78;98208.63;262902;1100;114637;-77
2021/04/29 03:58:16;;;;;;;31.88;16.90;;;;;;;7.14;51.08;98203.73;263111;1104;114820;-78
2021/04/29 04:03:20;;;;;;;34.28;17.03;;;;;;;7.21;51.18;98207.70;263330;1100;115094;-79
2021/04/29 04:08:23;;;;;;;27.73;17.40;;;;;;;7.33;50.91;98209.57;262967;1104;115512;-85
2021/04/29 04:13:26;;;;;;;32.65;17.70;;;;;;;7.50;50.52;98197.08;262582;1102;114799;-84
2021/04/29 04:18:29;;;;;;;34.20;17.80;;;;;;;7.62;50.40;98200.77;262539;1105;114795;-84
2021/04/29 04:23:32;;;;;;;32.55;18.08;;;;;;;7.75;50.43;98204.34;262995;1100;115537;-82
2021/04/29 04:28:35;;;;;;;29.60;17.43;;;;;;;7.88;50.77;98204.38;263177;1104;115386;-83
2021/04/29 04:33:38;;;;;;;32.35;17.15;;;;;;;7.96;50.19;98202.10;262772;1102;114872;-82
2021/04/29 04:38:41;;;;;;;36.05;16.95;;;;;;;8.05;50.17;98201.52;262930;1104;115242;-90
2021/04/29 04:43:45;;;;;;;31.33;16.17;;;;;;;8.15;50.63;98199.08;263067;1100;115563;-87
2021/04/29 04:48:48;;;;;;;33.23;16.40;;;;;;;8.28;49.77;98186.72;262974;1104;114913;-84
2021/04/29 04:53:51;;;;;;;31.55;16.55;;;;;;;8.38;50.34;98192.30;263030;1100;114983;-83
2021/04/29 04:58:54;;;;;;;35.75;16.55;;;;;;;8.48;49.95;98199.53;262829;1104;115273;-80
2021/04/29 05:03:58;;;;;;;33.00;17.28;;;;;;;8.62;50.27;98176.54;263103;1102;114913;-86
2021/04/29 05:09:03;;;;;;;33.08;18.10;;;;;;;8.80;49.66;98191.22;262587;1105;114899;-88
2021/04/29 05:14:06;;;;;;;32.38;17.25;;;;;;;9.02;49.82;98185.27;262683;1101;115046;-90
2021/04/29 05:19:14;;;;;;;32.67;17.73;;;;;;;9.23;50.26;98183.76;262680;1101;114909;-85
2021/04/29 05:24:18;;;;;;;33.93;17.45;;;;;;;9.48;49.79;98174.08;262950;1102;114709;-85
2021/04/29 05:29:22;;;;;;;30.80;17.63;;;;;;;9.75;49.60;98175.68;261623;1104;114963;-86
2021/04/29 05:34:28;;;;;;;29.18;16.75;;;;;;;9.92;49.77;98180.64;262817;1100;115453;-93
2021/04/29 05:39:39;;;;;;;34.33;18.55;;;;;;;10.09;49.31;98174.09;262592;1105;114837;-91
2021/04/29 05:44:44;;;;;;;33.40;17.50;;;;;;;10.33;49.42;98176.77;263202;1100;115216;-85
2021/04/29 05:49:47;;;;;;;36.20;18.58;;;;;;;10.51;49.26;98182.50;263188;1104;115635;-93
2021/04/29 05:54:51;;;;;;;37.73;18.15;;;;;;;10.67;49.08;98185.70;263139;1100;114987;-92
2021/04/29 06:00:01;;;;;;;36.43;18.65;;;;;;;10.81;49.65;98174.00;263184;1104;115622;-93
2021/04/29 06:05:15;;;;;;;35.70;17.83;;;;;;;10.97;48.65;98168.31;263393;1099;115544;-91
2021/04/29 06:10:18;;;;;;;33.85;18.33;;;;;;;11.10;48.94;98163.73;263056;1104;115616;-91
2021/04/29 06:15:22;;;;;;;41.90;17.38;;;;;;;11.26;48.96;98155.41;263117;1101;115033;-89
2021/04/29 06:20:25;;;;;;;28.28;16.35;;;;;;;11.44;48.85;98147.76;263295;1104;115065;-84
2021/04/29 06:25:28;;;;;;;36.68;16.03;;;;;;;11.61;48.92;98136.59;263027;1100;115523;-84
2021/04/29 06:30:34;;;;;;;31.50;15.05;;;;;;;11.78;48.74;98132.55;263108;1105;115727;-84
2021/04/29 06:35:37;;;;;;;26.73;13.68;;;;;;;11.96;48.81;98131.09;262918;1102;115347;-89
2021/04/29 06:40:41;;;;;;;26.77;13.57;;;;;;;12.13;48.03;98128.86;262937;1104;204828;-89
2021/04/29 06:45:44;;;;;;;21.28;12.60;;;;;;;12.30;47.99;98122.97;262856;1101;116071;-88
2021/04/29 06:50:48;;;;;;;29.20;13.23;;;;;;;12.48;47.80;98124.07;263068;1104;114998;-88
2021/04/29 06:55:51;;;;;;;28.13;13.63;;;;;;;12.66;48.12;98128.82;263043;1100;115994;-88
2021/04/29 07:00:55;;;;;;;26.45;13.13;;;;;;;12.79;47.49;98116.96;263438;1104;115602;-87
2021/04/29 07:05:58;;;;;;;26.63;11.98;;;;;;;12.94;47.14;98127.30;262597;1101;115094;-90
2021/04/29 07:11:01;;;;;;;23.93;11.60;;;;;;;13.10;46.91;98134.84;261254;1105;115856;-87
2021/04/29 07:16:05;;;;;;;23.73;10.95;;;;;;;13.27;47.00;98134.23;262996;1099;115349;-85
2021/04/29 07:21:08;;;;;;;27.85;11.50;;;;;;;13.45;46.81;98137.98;262699;1105;115667;-81
2021/04/29 07:26:11;;;;;;;27.98;12.20;;;;;;;13.63;45.93;98137.33;262922;1100;115232;-80
2021/04/29 07:31:14;;;;;;;32.33;13.00;;;;;;;13.80;45.48;98131.31;262864;1104;115362;-85
2021/04/29 07:36:17;;;;;;;28.90;11.80;;;;;;;13.99;45.09;98119.78;262885;1100;115601;-87
2021/04/29 07:41:24;;;;;;;25.55;10.73;;;;;;;14.23;44.43;98119.38;262811;1104;115159;-82
2021/04/29 07:46:27;;;;;;;20.47;8.13;;;;;;;14.45;44.56;98118.25;263081;1100;115618;-81
2021/04/29 07:51:30;;;;;;;18.30;7.18;;;;;;;14.59;43.54;98104.45;263105;1104;115483;-82
2021/04/29 07:56:34;;;;;;;15.98;7.80;;;;;;;14.69;42.85;98111.63;262973;1100;114963;-82
2021/04/29 08:01:38;;;;;;;20.43;7.68;;;;;;;14.79;42.67;98102.58;263066;1105;115289;-82
2021/04/29 08:06:42;;;;;;;19.50;7.38;;;;;;;14.88;42.60;98093.69;263400;1099;115016;-82
2021/04/29 08:11:49;;;;;;;17.08;7.75;;;;;;;14.98;42.33;98092.78;263454;1104;114387;-88
2021/04/29 08:16:53;;;;;;;24.50;8.15;;;;;;;15.07;41.69;98094.59;263158;1099;115575;-89
2021/04/29 08:21:57;;;;;;;23.43;7.05;;;;;;;15.21;42.18;98095.95;263296;1104;115614;-82
2021/04/29 08:27:00;;;;;;;14.68;6.18;;;;;;;15.35;42.21;98090.97;263065;1099;114827;-82
2021/04/29 08:32:05;;;;;;;10.43;5.55;;;;;;;15.48;41.56;98089.75;263372;1104;115398;-88
2021/04/29 08:37:09;;;;;;;14.28;6.58;;;;;;;15.64;41.65;98073.02;263217;1099;115138;-88
2021/04/29 08:42:14;;;;;;;14.18;6.18;;;;;;;15.76;41.21;98071.82;263231;1104;115260;-82
2021/04/29 08:47:17;;;;;;;15.85;6.33;;;;;;;15.97;41.16;98058.14;263177;1099;115926;-88
2021/04/29 08:52:29;;;;;;;11.50;5.70;;;;;;;16.15;40.97;98053.59;263204;1104;115301;-83
2021/04/29 08:57:33;;;;;;;14.28;6.38;;;;;;;16.36;40.82;98052.42;263340;1099;115385;-81
2021/04/29 09:02:38;;;;;;;14.73;5.28;;;;;;;16.61;40.69;98046.23;263176;1104;115567;-88
2021/04/29 09:07:58;;;;;;;9.15;4.90;;;;;;;16.75;40.15;98043.00;263133;1104;115165;-87
2021/04/29 09:13:22;;;;;;;11.00;4.70;;;;;;;16.83;40.08;98039.51;263132;1104;115361;-85
2021/04/29 09:18:31;;;;;;;9.83;5.57;;;;;;;16.90;40.10;98037.02;263401;1100;115343;-86
2021/04/29 09:23:38;;;;;;;10.60;5.08;;;;;;;16.92;40.23;98025.13;263162;1104;114762;-82
2021/04/29 09:28:47;;;;;;;8.28;4.75;;;;;;;17.01;40.45;98020.61;263127;1100;115268;-83
2021/04/29 09:33:56;;;;;;;13.35;4.98;;;;;;;17.19;40.64;98015.16;263351;1104;114777;-82
2021/04/29 09:39:19;;;;;;;43.50;25.20;;;;;;;17.44;41.22;98005.32;263055;1102;115766;-93
2021/04/29 09:44:24;;;;;;;60.98;38.25;;;;;;;17.87;41.21;98001.56;261889;1104;115645;-91
2021/04/29 09:49:38;;;;;;;30.43;18.45;;;;;;;18.23;40.80;97995.84;263059;1099;115000;-91
2021/04/29 09:54:42;;;;;;;29.30;18.98;;;;;;;18.50;40.28;97991.09;263535;1104;114933;-89
2021/04/29 09:59:48;;;;;;;43.08;25.75;;;;;;;18.54;40.61;97981.66;263554;1103;115535;-84
2021/04/29 10:04:54;;;;;;;21.83;12.97;;;;;;;18.58;39.91;97973.07;261858;1104;116938;-92
2021/04/29 10:09:58;;;;;;;38.65;27.15;;;;;;;18.74;40.19;97971.36;263380;1100;115518;-83
2021/04/29 10:15:02;;;;;;;19.60;13.38;;;;;;;19.01;40.68;97964.70;263204;1104;115964;-84
2021/04/29 10:20:07;;;;;;;29.97;19.93;;;;;;;19.22;40.29;97942.51;261636;1102;115171;-84
2021/04/29 10:25:11;;;;;;;18.15;11.48;;;;;;;19.37;40.34;97956.94;263219;1104;115487;-84
2021/04/29 10:30:18;;;;;;;11.03;4.90;;;;;;;19.38;39.99;97954.05;263555;1100;115432;-94
2021/04/29 10:35:23;;;;;;;12.25;6.23;;;;;;;19.31;40.08;97958.48;263303;1104;114673;-84
2021/04/29 10:40:35;;;;;;;14.35;9.20;;;;;;;19.34;39.89;97946.50;262205;1099;114849;-85
2021/04/29 10:45:39;;;;;;;15.13;6.93;;;;;;;19.39;39.83;97944.09;260648;1104;115499;-95
2021/04/29 10:50:55;;;;;;;7.45;3.40;;;;;;;19.45;40.47;97942.55;258983;1100;114569;-95
2021/04/29 10:56:04;;;;;;;11.43;4.13;;;;;;;19.37;39.87;97940.75;262759;1105;114978;-86
2021/04/29 11:01:18;;;;;;;9.33;3.45;;;;;;;19.34;40.53;97941.94;262594;1102;115309;-84
2021/04/29 11:06:27;;;;;;;12.68;3.18;;;;;;;19.36;40.37;97930.95;262740;1104;115194;-84
2021/04/29 11:11:36;;;;;;;6.35;3.10;;;;;;;19.34;40.56;97941.10;262682;1102;114909;-86
2021/04/29 11:16:45;;;;;;;11.00;3.00;;;;;;;19.27;40.34;97934.73;262687;1105;115861;-86
2021/04/29 11:21:48;;;;;;;10.75;3.10;;;;;;;19.24;40.47;97948.58;262685;1102;115209;-84
2021/04/29 11:26:52;;;;;;;6.53;2.78;;;;;;;19.20;40.97;97940.00;262657;1105;115213;-87
2021/04/29 11:31:55;;;;;;;9.58;2.68;;;;;;;19.17;40.51;97947.61;262720;1102;115481;-85
2021/04/29 11:36:59;;;;;;;7.53;2.95;;;;;;;19.15;40.83;97947.77;262554;1105;115311;-85
2021/04/29 11:42:03;;;;;;;8.10;2.70;;;;;;;19.23;40.92;97955.00;262638;1105;114885;-80
2021/04/29 11:47:13;;;;;;;10.40;3.18;;;;;;;19.37;41.05;97956.94;262596;1106;115555;-84
2021/04/29 11:52:20;;;;;;;7.25;3.35;;;;;;;19.63;41.36;97967.41;262446;1101;115548;-83
2021/04/29 11:57:23;;;;;;;8.63;3.30;;;;;;;19.92;40.96;97977.52;262335;1105;115133;-86
2021/04/29 12:02:27;;;;;;;9.43;4.35;;;;;;;20.35;41.15;97964.32;262608;1100;115555;-85
2021/04/29 12:07:43;;;;;;;14.88;4.65;;;;;;;20.62;40.93;97957.48;262708;1105;115063;-84
2021/04/29 12:12:49;;;;;;;;;;;;;;;20.54;40.40;97966.50;262488;1102;115226;-84
2021/04/29 12:17:52;;;;;;;18.15;4.78;;;;;;;20.41;40.69;97971.66;262688;1105;101457;-86
2021/04/29 12:22:55;;;;;;;14.73;4.80;;;;;;;20.32;40.53;97980.89;262533;1101;115534;-86
2021/04/29 12:28:00;;;;;;;16.28;5.00;;;;;;;20.28;40.55;97971.48;262618;1106;115061;-84
2021/04/29 12:33:14;;;;;;;18.18;4.78;;;;;;;20.49;40.69;97955.38;262595;1106;115620;-86
2021/04/29 12:38:19;;;;;;;7.38;4.98;;;;;;;20.95;40.67;97959.80;262427;1104;115734;-85
2021/04/29 12:43:22;;;;;;;13.48;5.40;;;;;;;21.46;40.58;97963.38;262570;1101;114804;-85
2021/04/29 12:48:32;;;;;;;12.23;5.15;;;;;;;21.86;40.01;97962.97;262565;1106;114799;-87
2021/04/29 12:53:37;;;;;;;10.90;5.20;;;;;;;22.20;39.60;97962.27;262516;1102;115647;-85
2021/04/29 12:58:40;;;;;;;9.50;5.38;;;;;;;22.43;38.96;97956.61;262640;1105;115742;-84
2021/04/29 13:03:47;;;;;;;12.50;5.53;;;;;;;22.65;38.57;97960.09;262587;1101;114880;-86
2021/04/29 13:09:02;;;;;;;14.33;4.63;;;;;;;22.78;37.90;97960.17;262492;1105;115735;-87
2021/04/29 13:14:11;;;;;;;10.70;4.90;;;;;;;22.85;37.51;97966.48;262573;1101;115539;-84
2021/04/29 13:19:17;;;;;;;11.13;6.00;;;;;;;22.57;37.36;97952.13;262561;1100;115069;-83
2021/04/29 13:24:20;;;;;;;14.90;5.30;;;;;;;22.77;37.51;97961.22;262448;1102;116257;-77
2021/04/29 13:29:23;;;;;;;10.67;4.93;;;;;;;22.89;37.15;97942.49;262602;1104;115455;-85
2021/04/29 13:34:27;;;;;;;9.13;5.10;;;;;;;23.03;36.75;97947.01;262498;1101;115124;-80
2021/04/29 13:39:30;;;;;;;9.83;5.05;;;;;;;23.12;36.67;97951.20;262537;1105;115597;-79
2021/04/29 13:44:33;;;;;;;8.95;5.18;;;;;;;23.17;36.37;97933.50;262485;1100;115363;-82
2021/04/29 13:49:36;;;;;;;8.83;5.35;;;;;;;23.18;36.37;97927.84;262536;1105;115064;-79
2021/04/29 13:54:40;;;;;;;15.10;5.30;;;;;;;23.25;36.30;97917.85;262570;1101;115742;-77
2021/04/29 13:59:43;;;;;;;9.18;6.08;;;;;;;23.44;36.28;97918.97;262522;1105;115844;-77
2021/04/29 14:04:47;;;;;;;7.90;5.65;;;;;;;23.62;36.22;97923.80;262550;1100;114923;-80
2021/04/29 14:09:50;;;;;;;13.05;6.00;;;;;;;23.76;36.04;97924.70;262535;1105;114975;-77
2021/04/29 14:14:54;;;;;;;10.65;6.35;;;;;;;23.80;35.58;97918.63;262533;1105;115782;-78
2021/04/29 14:19:57;;;;;;;15.00;6.28;;;;;;;23.58;35.04;97927.98;262413;1105;115130;-80
2021/04/29 14:25:00;;;;;;;10.85;6.30;;;;;;;23.23;34.94;97925.34;262428;1102;115629;-78
2021/04/29 14:30:05;;;;;;;13.30;6.43;;;;;;;23.13;35.14;97917.61;262417;1105;115907;-76
2021/04/29 14:35:08;;;;;;;;;;;;;;;23.09;35.09;97918.20;262434;1100;114997;-80
2021/04/29 14:40:12;;;;;;;9.20;6.03;;;;;;;22.93;35.08;97932.11;261524;1105;103164;-81
2021/04/29 14:45:18;;;;;;;12.70;7.30;;;;;;;22.72;35.22;97935.72;262312;1102;115620;-81
2021/04/29 14:50:24;;;;;;;13.95;7.08;;;;;;;22.43;35.32;97940.34;262558;1105;115091;-86
2021/04/29 14:55:27;;;;;;;10.03;7.10;;;;;;;22.17;35.61;97939.09;262521;1102;115005;-88
2021/04/29 15:00:32;;;;;;;13.70;7.97;;;;;;;21.94;35.88;97939.30;262695;1101;115445;-89
2021/04/29 15:05:35;;;;;;;16.95;7.50;;;;;;;21.72;36.29;97924.91;262918;1105;115207;-81
2021/04/29 15:10:38;;;;;;;12.40;7.63;;;;;;;21.55;36.49;97912.66;262601;1105;115556;-88
2021/04/29 15:16:02;;;;;;;16.73;9.60;;;;;;;21.41;36.83;97932.52;262510;1101;116452;-82
2021/04/29 15:21:07;;;;;;;13.60;8.80;;;;;;;21.32;36.76;97922.79;262534;1105;115185;-81
2021/04/29 15:26:11;;;;;;;14.93;8.67;;;;;;;21.26;37.17;97929.80;262582;1100;115219;-85
2021/04/29 15:31:14;;;;;;;14.48;8.80;;;;;;;21.13;37.12;97918.84;262620;1105;116000;-81
2021/04/29 15:36:17;;;;;;;13.73;8.73;;;;;;;21.06;37.11;97915.19;262520;1101;115310;-82
2021/04/29 15:41:21;;;;;;;15.00;9.30;;;;;;;21.03;37.38;97919.97;262362;1105;115122;-80
2021/04/29 15:46:25;;;;;;;13.43;8.53;;;;;;;20.89;37.43;97928.08;262583;1102;115669;-80
2021/04/29 15:51:31;;;;;;;13.28;8.30;;;;;;;20.74;37.64;97917.28;262398;1106;115656;-80
2021/04/29 15:56:39;;;;;;;12.38;8.73;;;;;;;20.65;37.84;97913.86;262623;1104;114819;-81
2021/04/29 16:01:44;;;;;;;15.73;9.10;;;;;;;20.57;38.02;97918.51;262519;1105;115395;-81
2021/04/29 16:06:47;;;;;;;18.58;8.80;;;;;;;20.54;37.96;97922.41;262496;1100;115768;-80
2021/04/29 16:11:51;;;;;;;13.85;8.43;;;;;;;20.57;38.09;97924.75;262541;1105;115077;-80
2021/04/29 16:16:55;;;;;;;16.35;7.55;;;;;;;20.75;38.28;97925.23;262548;1100;115179;-79
2021/04/29 16:21:58;;;;;;;10.30;7.25;;;;;;;20.77;38.11;97928.56;262644;1105;115161;-79
2021/04/29 16:27:02;;;;;;;13.88;6.85;;;;;;;20.73;38.28;97921.03;262564;1100;114911;-79
2021/04/29 16:32:05;;;;;;;11.88;7.38;;;;;;;20.68;38.31;97916.16;262610;1105;115797;-79
2021/04/29 16:37:09;;;;;;;12.93;6.95;;;;;;;20.63;38.43;97928.58;262271;1101;115433;-80
2021/04/29 16:42:14;;;;;;;10.30;6.90;;;;;;;20.55;38.27;97927.66;262595;1105;115147;-79
2021/04/29 16:47:18;;;;;;;11.60;7.55;;;;;;;20.45;38.25;97932.46;262568;1105;115152;-79
2021/04/29 16:52:22;;;;;;;10.88;7.15;;;;;;;20.34;38.55;97930.19;262330;1106;115829;-80
2021/04/29 16:57:26;;;;;;;11.70;7.50;;;;;;;20.26;38.60;97935.69;261639;1102;114878;-80
2021/04/29 17:02:32;;;;;;;11.88;6.73;;;;;;;20.18;38.70;97943.88;262638;1105;115263;-81
2021/04/29 17:07:37;;;;;;;10.55;5.45;;;;;;;20.10;38.63;97936.67;262517;1102;115582;-84
2021/04/29 17:12:42;;;;;;;13.23;5.80;;;;;;;20.01;38.80;97941.32;262623;1103;116404;-80
2021/04/29 17:17:48;;;;;;;10.95;5.48;;;;;;;19.94;38.80;97945.77;262213;1102;115000;-78
2021/04/29 17:22:52;;;;;;;7.70;4.50;;;;;;;19.88;38.88;97949.19;262418;1105;115668;-84
2021/04/29 17:27:55;;;;;;;9.13;5.03;;;;;;;19.84;38.87;97950.58;262489;1102;114812;-78
2021/04/29 17:32:59;;;;;;;7.65;4.78;;;;;;;19.78;38.55;97952.13;262513;1104;116236;-77
2021/04/29 17:38:06;;;;;;;9.50;4.88;;;;;;;19.71;38.59;97955.73;262496;1106;115615;-81
2021/04/29 17:43:10;;;;;;;9.40;5.45;;;;;;;19.64;38.75;97958.31;262535;1104;115138;-77
2021/04/29 17:48:14;;;;;;;12.28;5.78;;;;;;;19.58;39.33;97957.13;262361;1101;115268;-79
2021/04/29 17:53:17;;;;;;;12.15;5.98;;;;;;;19.53;39.11;97959.55;262543;1105;115525;-77
2021/04/29 17:58:20;;;;;;;12.90;6.13;;;;;;;19.44;39.18;97965.16;262545;1099;115279;-80
2021/04/29 18:03:37;;;;;;;15.65;6.55;;;;;;;19.34;39.42;97977.02;262532;1105;115210;-79
2021/04/29 18:08:41;;;;;;;10.93;6.33;;;;;;;19.23;39.70;97977.41;262544;1101;115298;-81
2021/04/29 18:13:45;;;;;;;10.48;6.43;;;;;;;19.11;39.64;97974.25;262528;1105;114992;-80
2021/04/29 18:18:49;;;;;;;13.45;6.85;;;;;;;19.01;39.62;97981.71;262550;1101;114908;-83
2021/04/29 18:23:52;;;;;;;18.30;7.63;;;;;;;18.91;40.45;97979.22;262580;1106;116053;-81
2021/04/29 18:28:55;;;;;;;19.23;9.13;;;;;;;18.78;40.62;97991.56;262561;1100;115474;-81
2021/04/29 18:33:58;;;;;;;29.73;8.75;;;;;;;18.62;40.94;98001.35;262571;1105;115004;-81
2021/04/29 18:39:05;;;;;;;23.95;8.23;;;;;;;18.48;41.34;98011.97;262593;1100;115751;-79
2021/04/29 18:44:08;;;;;;;20.38;8.10;;;;;;;18.35;41.67;98015.20;262629;1105;115672;-78
2021/04/29 18:49:20;;;;;;;30.03;8.75;;;;;;;18.19;41.96;98016.88;262760;1100;115717;-78
2021/04/29 18:54:23;;;;;;;30.60;8.88;;;;;;;18.02;42.31;98025.13;262600;1106;115373;-78
2021/04/29 18:59:27;;;;;;;21.68;8.30;;;;;;;17.93;42.63;98033.21;262619;1100;115044;-76
2021/04/29 19:05:03;;;;;;;18.45;8.35;;;;;;;17.92;42.61;98041.44;262672;1105;115188;-76
2021/04/29 19:16:46;;;;;;;21.33;8.83;;;;;;;17.93;42.90;98035.91;262693;1104;115163;-80
2021/04/29 19:21:52;;;;;;;19.98;9.55;;;;;;;17.94;43.03;98047.51;262616;1101;114929;-73
2021/04/29 19:26:55;;;;;;;20.85;10.13;;;;;;;17.91;43.10;98040.59;262536;1105;115188;-76
2021/04/29 19:31:58;;;;;;;24.28;10.28;;;;;;;17.89;43.13;98058.75;262578;1100;115033;-83
2021/04/29 19:37:02;;;;;;;19.85;11.45;;;;;;;17.87;43.29;98051.88;262577;1106;114943;-75
2021/04/29 19:42:06;;;;;;;21.80;11.95;;;;;;;17.85;43.28;98053.88;262548;1101;115261;-81
2021/04/29 19:47:11;;;;;;;20.93;11.65;;;;;;;17.81;43.71;98049.84;262523;1105;115384;-75
2021/04/29 19:52:15;;;;;;;21.05;11.95;;;;;;;17.74;43.76;98047.77;262557;1101;115020;-76
2021/04/29 19:57:18;;;;;;;22.67;12.30;;;;;;;17.70;43.74;98038.34;262538;1103;115381;-76
2021/04/29 20:02:24;;;;;;;26.93;12.43;;;;;;;17.70;43.80;98059.04;262553;1100;115556;-79
2021/04/29 20:07:27;;;;;;;19.83;11.35;;;;;;;17.67;44.10;98043.22;262551;1104;115070;-80
2021/04/29 20:12:32;;;;;;;21.28;11.73;;;;;;;17.61;44.36;98033.11;262551;1101;115255;-79
2021/04/29 20:17:37;;;;;;;14.88;9.35;;;;;;;17.56;44.63;98035.44;262536;1104;115257;-80
2021/04/29 20:22:42;;;;;;;25.87;14.37;;;;;;;17.51;44.66;98044.00;262511;1102;115014;-80
2021/04/29 20:27:47;;;;;;;23.70;13.03;;;;;;;17.42;44.76;98043.13;262187;1105;114868;-77
2021/04/29 20:32:50;;;;;;;;;;;;;;;17.31;45.13;98043.42;262586;1102;115185;-79
2021/04/29 20:37:55;;;;;;;31.95;13.95;;;;;;;17.19;45.74;98040.20;262661;1105;101127;-77
2021/04/29 20:42:58;;;;;;;24.53;12.63;;;;;;;17.10;45.82;98045.70;262511;1102;115648;-80
2021/04/29 20:48:03;;;;;;;24.00;12.98;;;;;;;17.05;45.74;98043.50;262577;1105;115930;-80
2021/04/29 20:53:08;;;;;;;27.65;14.23;;;;;;;17.01;45.61;98052.86;262546;1101;115415;-79
2021/04/29 20:58:11;;;;;;;28.13;14.40;;;;;;;16.95;45.79;98048.13;262580;1105;115277;-79
2021/04/29 21:03:15;;;;;;;24.70;13.75;;;;;;;16.91;46.00;98049.45;262705;1100;115072;-78
2021/04/29 21:08:19;;;;;;;21.48;14.18;;;;;;;16.84;46.15;98045.72;262545;1105;115265;-78
2021/04/29 21:13:22;;;;;;;29.55;14.50;;;;;;;16.74;46.61;98046.66;262559;1100;115308;-76
2021/04/29 21:18:25;;;;;;;34.13;15.38;;;;;;;16.64;46.50;98045.05;262517;1105;115456;-79
2021/04/29 21:23:30;;;;;;;25.15;13.20;;;;;;;16.61;46.73;98053.42;262486;1102;115127;-77
2021/04/29 21:28:34;;;;;;;24.80;14.40;;;;;;;16.65;46.68;98052.14;262567;1103;115360;-77
2021/04/29 21:33:37;;;;;;;25.85;13.80;;;;;;;16.69;46.96;98053.50;262543;1102;115231;-81
2021/04/29 21:38:41;;;;;;;28.60;14.78;;;;;;;16.69;46.91;98062.40;262527;1101;115286;-80
2021/04/29 21:43:46;;;;;;;25.33;14.98;;;;;;;16.58;47.33;98059.98;262601;1101;114972;-80
2021/04/29 21:48:52;;;;;;;27.43;16.23;;;;;;;16.43;47.32;98064.22;262486;1106;115090;-81
2021/04/29 21:53:55;;;;;;;37.25;19.28;;;;;;;16.23;47.91;98059.02;262477;1103;115222;-71
2021/04/29 21:59:00;;;;;;;40.63;20.58;;;;;;;16.09;48.21;98048.84;262526;1105;116104;-71
2021/04/29 22:04:03;;;;;;;;;;;;;;;15.96;48.16;98059.11;262367;1102;115101;-71
2021/04/29 22:09:06;;;;;;;39.95;20.58;;;;;;;15.83;48.62;98051.47;262575;1105;101101;-73
2021/04/29 22:14:09;;;;;;;38.40;21.00;;;;;;;15.71;48.94;98058.88;262567;1102;115095;-74
2021/04/29 22:19:13;;;;;;;38.33;21.55;;;;;;;15.60;49.41;98051.02;262512;1106;115288;-71
2021/04/29 22:24:16;;;;;;;43.33;26.08;;;;;;;15.48;49.46;98049.53;262523;1100;115537;-73
2021/04/29 22:29:20;;;;;;;34.35;19.30;;;;;;;15.42;49.62;98055.48;262511;1106;115408;-72
2021/04/29 22:34:24;;;;;;;39.73;19.33;;;;;;;15.42;49.65;98044.77;262407;1102;115291;-75
2021/04/29 22:39:28;;;;;;;37.57;18.90;;;;;;;15.32;49.98;98043.00;262555;1106;115049;-72
2021/04/29 22:44:31;;;;;;;33.23;18.53;;;;;;;15.22;50.00;98052.09;262519;1102;115275;-74
2021/04/29 22:49:35;;;;;;;32.80;17.90;;;;;;;15.11;50.40;98047.75;262504;1104;115085;-74
2021/04/29 22:54:38;;;;;;;31.73;18.30;;;;;;;15.00;50.79;98056.83;262483;1100;115037;-73
2021/04/29 22:59:41;;;;;;;33.98;20.33;;;;;;;14.92;51.42;98056.73;262535;1105;115102;-71
2021/04/29 23:04:44;;;;;;;44.30;21.55;;;;;;;14.86;51.46;98066.19;262094;1101;115465;-71
2021/04/29 23:09:47;;;;;;;43.10;21.05;;;;;;;14.75;51.83;98061.02;262524;1105;115394;-70
2021/04/29 23:14:50;;;;;;;57.33;22.80;;;;;;;14.66;51.52;98057.36;262755;1101;115157;-73